Time;durP1;ratioP1;P1;durP2;ratioP2;P2;SDS_P1;SDS_P2;PMS_P1;PMS_P2;Temp;Humidity;BMP_temperature;BMP_pressure;BME280_temperature;BME280_humidity;BME280_pressure;Samples;Min_cycle;Max_cycle;Signal;HPM_P1;HPM_P2
2022/11/23 00:00:58;;;;;;;4.40;3.40;;;17.20;70.80;;;;;;5015869;28;20211;-67
2022/11/23 00:03:24;;;;;;;4.68;3.83;;;17.20;70.80;;;;;;5014606;28;20187;-68
2022/11/23 00:05:50;;;;;;;4.70;3.90;;;17.20;70.70;;;;;;4998457;28;20191;-67
2022/11/23 00:08:15;;;;;;;3.80;3.40;;;17.20;70.60;;;;;;5015485;28;20207;-67
2022/11/23 00:10:41;;;;;;;4.18;3.60;;;17.20;70.60;;;;;;5014780;28;20212;-67
2022/11/23 00:13:07;;;;;;;3.97;3.20;;;17.20;70.60;;;;;;5014662;28;20218;-67
2022/11/23 00:15:34;;;;;;;4.00;3.60;;;17.20;70.50;;;;;;5030780;28;20270;-68
2022/11/23 00:18:00;;;;;;;4.43;3.42;;;17.20;70.50;;;;;;5014114;28;20235;-67
2022/11/23 00:20:25;;;;;;;4.60;3.88;;;17.20;70.40;;;;;;4998290;28;20196;-67
2022/11/23 00:22:51;;;;;;;5.35;3.58;;;17.20;70.40;;;;;;5014335;28;20172;-67
2022/11/23 00:25:17;;;;;;;4.97;3.47;;;17.20;70.40;;;;;;4998186;28;20255;-67
2022/11/23 00:27:42;;;;;;;4.15;3.60;;;17.20;70.40;;;;;;4997721;28;20242;-67
2022/11/23 00:30:09;;;;;;;4.18;3.28;;;17.20;70.30;;;;;;4998053;28;20196;-67
2022/11/23 00:32:35;;;;;;;3.90;3.13;;;17.20;70.50;;;;;;5014370;28;20185;-68
2022/11/23 00:35:00;;;;;;;3.70;3.22;;;17.10;70.20;;;;;;5013986;28;20179;-67
2022/11/23 00:37:26;;;;;;;3.88;3.50;;;17.10;70.20;;;;;;4997361;28;20211;-68
2022/11/23 00:39:53;;;;;;;3.83;3.38;;;17.20;70.40;;;;;;5014999;28;20690;-67
2022/11/23 00:42:19;;;;;;;3.72;3.35;;;17.20;70.40;;;;;;4997485;28;20275;-67
2022/11/23 00:44:45;;;;;;;5.05;3.35;;;17.20;70.30;;;;;;4997475;28;20190;-67
2022/11/23 00:47:11;;;;;;;4.65;3.50;;;17.10;70.30;;;;;;4996563;28;20243;-67
2022/11/23 00:49:37;;;;;;;3.85;3.45;;;17.20;70.60;;;;;;5013396;28;20269;-67
2022/11/23 00:52:02;;;;;;;4.75;3.40;;;17.20;70.40;;;;;;4997564;28;20200;-68
2022/11/23 00:54:28;;;;;;;4.90;3.88;;;17.10;70.20;;;;;;5014282;28;20184;-68
2022/11/23 00:56:54;;;;;;;3.90;3.22;;;17.20;70.30;;;;;;4997236;28;20204;-67
2022/11/23 00:59:21;;;;;;;4.70;3.67;;;17.10;70.10;;;;;;5013270;28;20596;-68
2022/11/23 01:01:48;;;;;;;4.75;3.65;;;17.10;70.10;;;;;;5013461;28;20180;-68
2022/11/23 01:04:14;;;;;;;3.75;3.35;;;17.20;70.30;;;;;;5013343;28;20745;-68
2022/11/23 01:06:40;;;;;;;4.70;3.97;;;17.10;70.10;;;;;;5013314;28;20227;-67
2022/11/23 01:09:16;;;;;;;4.43;3.67;;;17.20;70.30;;;;;;5013144;28;20204;-68
2022/11/23 01:11:43;;;;;;;5.45;3.83;;;17.10;70.00;;;;;;5013537;28;20179;-67
2022/11/23 01:14:09;;;;;;;4.60;4.00;;;17.20;70.20;;;;;;5013528;28;20184;-67
2022/11/23 01:16:40;;;;;;;6.13;3.80;;;17.10;70.00;;;;;;5013645;28;20208;-68
2022/11/23 01:19:10;;;;;;;4.97;4.28;;;17.10;69.80;;;;;;5013218;28;20246;-68
2022/11/23 01:21:37;;;;;;;4.40;4.00;;;17.10;69.80;;;;;;5013180;28;20180;-68
2022/11/23 01:24:08;;;;;;;4.97;4.20;;;17.10;69.80;;;;;;5013066;28;20234;-68
2022/11/23 01:26:37;;;;;;;5.15;4.47;;;17.20;69.90;;;;;;5013728;28;20188;-68
2022/11/23 01:29:03;;;;;;;4.72;4.22;;;17.10;69.80;;;;;;5029123;28;20261;-68
2022/11/23 01:31:29;;;;;;;5.10;4.18;;;17.10;69.90;;;;;;5012887;28;20192;-67
2022/11/23 01:34:01;;;;;;;4.13;3.72;;;17.10;69.90;;;;;;5014007;28;20190;-68
2022/11/23 01:36:31;;;;;;;5.57;3.88;;;17.10;69.90;;;;;;5012624;28;20250;-68
2022/11/23 01:38:58;;;;;;;5.05;3.95;;;17.10;70.00;;;;;;5012849;28;20196;-67
2022/11/23 01:41:32;;;;;;;5.13;4.38;;;17.10;69.80;;;;;;5013952;28;20715;-67
2022/11/23 01:43:58;;;;;;;5.15;4.28;;;17.10;70.10;;;;;;5013061;28;20179;-68
2022/11/23 01:46:24;;;;;;;4.15;3.72;;;17.10;69.80;;;;;;5013041;28;20186;-67
2022/11/23 01:49:06;;;;;;;5.35;4.10;;;17.10;69.90;;;;;;4996344;28;20310;-68
2022/11/23 01:51:40;;;;;;;5.15;4.10;;;17.10;69.80;;;;;;5012870;28;20242;-67
2022/11/23 01:54:21;;;;;;;4.32;3.60;;;17.10;69.80;;;;;;5012304;28;20192;-67
2022/11/23 01:56:57;;;;;;;4.72;4.00;;;17.10;69.80;;;;;;5009222;28;20213;-68
2022/11/23 01:59:27;;;;;;;5.13;4.03;;;17.20;69.90;;;;;;4992378;28;20210;-68
2022/11/23 02:01:53;;;;;;;5.03;3.92;;;17.10;69.80;;;;;;4992806;28;20239;-68
2022/11/23 02:04:28;;;;;;;4.38;3.67;;;17.10;69.80;;;;;;5009217;28;20177;-68
2022/11/23 02:06:56;;;;;;;5.43;4.03;;;17.10;69.80;;;;;;4993099;28;20273;-68
2022/11/23 02:09:22;;;;;;;4.22;3.33;;;17.10;69.80;;;;;;4992455;28;20212;-68
2022/11/23 02:11:48;;;;;;;4.32;3.92;;;17.10;69.80;;;;;;4992647;28;20231;-67
2022/11/23 02:14:14;;;;;;;4.18;3.78;;;17.10;69.80;;;;;;4992559;28;20276;-67
2022/11/23 02:16:40;;;;;;;4.00;3.60;;;17.10;69.80;;;;;;4992494;28;20224;-67
2022/11/23 02:19:33;;;;;;;4.38;3.97;;;17.10;69.80;;;;;;4992590;28;20676;-67
2022/11/23 02:21:59;;;;;;;4.20;3.33;;;17.10;69.80;;;;;;5008828;28;20243;-68
2022/11/23 02:24:43;;;;;;;4.53;3.75;;;17.10;69.80;;;;;;4992338;28;20598;-68
2022/11/23 02:27:09;;;;;;;4.18;3.40;;;17.10;69.80;;;;;;4992709;28;20184;-68
2022/11/23 02:29:35;;;;;;;4.07;3.58;;;17.10;69.80;;;;;;4992306;28;20208;-67
2022/11/23 02:32:01;;;;;;;3.70;3.40;;;17.10;69.80;;;;;;5008675;28;20216;-68
2022/11/23 02:34:27;;;;;;;4.63;3.42;;;17.10;69.80;;;;;;4992129;28;20200;-68
2022/11/23 02:36:56;;;;;;;4.03;3.63;;;17.10;69.80;;;;;;5008502;28;20216;-67
2022/11/23 02:39:37;;;;;;;4.03;3.42;;;17.20;69.90;;;;;;4976158;28;20301;-68
2022/11/23 02:42:04;;;;;;;3.30;3.00;;;17.10;69.80;;;;;;4992181;28;20193;-67
2022/11/23 02:44:50;;;;;;;4.18;3.40;;;17.10;69.80;;;;;;4992419;28;20166;-68
2022/11/23 02:47:16;;;;;;;4.00;3.50;;;17.10;69.80;;;;;;4992138;28;20219;-67
2022/11/23 02:52:08;;;;;;;3.97;3.42;;;17.10;69.80;;;;;;5030775;28;20264;-69
2022/11/23 02:54:34;;;;;;;3.47;3.03;;;17.10;69.80;;;;;;5031494;28;20198;-70
2022/11/23 02:57:00;;;;;;;3.20;2.90;;;17.10;69.80;;;;;;5031283;28;20207;-69
2022/11/23 02:59:26;;;;;;;3.42;3.13;;;17.10;69.80;;;;;;5027639;28;20211;-69
2022/11/23 03:01:52;;;;;;;3.88;3.00;;;17.10;69.70;;;;;;4995424;28;20270;-69
2022/11/23 03:04:18;;;;;;;3.58;3.08;;;17.20;69.90;;;;;;5012653;28;20306;-69
2022/11/23 03:06:44;;;;;;;3.72;3.17;;;17.10;69.80;;;;;;4994957;28;20218;-69
2022/11/23 03:09:09;;;;;;;3.40;2.80;;;17.10;69.80;;;;;;5011041;28;20208;-69
2022/11/23 03:11:36;;;;;;;3.85;2.80;;;17.10;69.80;;;;;;5010669;28;20184;-69
2022/11/23 03:14:03;;;;;;;3.33;3.00;;;17.10;69.80;;;;;;5011182;28;20192;-68
2022/11/23 03:16:33;;;;;;;2.78;2.58;;;17.10;69.80;;;;;;5011263;28;20754;-69
2022/11/23 03:18:59;;;;;;;3.75;3.15;;;17.10;69.80;;;;;;5011105;28;20204;-69
2022/11/23 03:21:25;;;;;;;3.20;2.90;;;17.10;69.80;;;;;;5011333;28;20176;-70
2022/11/23 03:23:51;;;;;;;3.95;3.20;;;17.10;69.80;;;;;;5011114;28;20180;-69
2022/11/23 03:26:18;;;;;;;3.08;2.67;;;17.10;69.80;;;;;;5011130;28;20190;-69
2022/11/23 03:28:53;;;;;;;3.90;2.95;;;17.10;69.80;;;;;;5011202;28;20218;-69
2022/11/23 03:31:19;;;;;;;3.45;2.80;;;17.10;69.80;;;;;;5011146;28;20192;-69
2022/11/23 03:33:46;;;;;;;3.08;2.60;;;17.10;69.80;;;;;;5007876;28;20196;-69
2022/11/23 03:36:13;;;;;;;3.03;2.63;;;17.10;69.70;;;;;;5001232;28;20200;-69
2022/11/23 03:38:45;;;;;;;2.97;2.35;;;17.10;69.70;;;;;;4976042;28;20408;-69
2022/11/23 03:41:24;;;;;;;3.10;2.50;;;17.10;69.80;;;;;;4977360;28;20177;-69
2022/11/23 03:43:52;;;;;;;2.95;2.42;;;17.10;69.60;;;;;;4991427;28;20189;-69
2022/11/23 03:46:18;;;;;;;2.67;2.45;;;17.10;69.50;;;;;;4991546;28;20201;-69
2022/11/23 03:48:45;;;;;;;2.70;2.30;;;17.10;69.70;;;;;;4975326;28;20212;-69
2022/11/23 03:51:10;;;;;;;2.70;2.40;;;17.20;69.50;;;;;;4991359;28;20200;-69
2022/11/23 03:53:36;;;;;;;3.08;2.35;;;17.10;69.50;;;;;;4991442;28;20192;-70
2022/11/23 03:56:02;;;;;;;2.40;2.13;;;17.10;69.70;;;;;;4991426;28;20254;-70
2022/11/23 03:58:33;;;;;;;3.30;2.33;;;17.10;69.70;;;;;;4991166;28;20208;-70
2022/11/23 04:01:02;;;;;;;2.20;2.00;;;17.10;69.70;;;;;;4991300;28;20197;-69
2022/11/23 04:03:28;;;;;;;2.45;2.17;;;17.10;69.70;;;;;;4991281;28;20246;-69
2022/11/23 04:06:07;;;;;;;2.30;2.10;;;17.10;69.60;;;;;;4976946;28;20177;-69
2022/11/23 04:08:55;;;;;;;2.88;2.15;;;17.10;69.80;;;;;;5007362;28;20267;-69
2022/11/23 04:11:38;;;;;;;2.70;2.20;;;17.10;69.40;;;;;;4991260;28;20269;-69
2022/11/23 04:14:04;;;;;;;2.30;1.90;;;17.10;69.40;;;;;;4974956;28;20214;-69
2022/11/23 04:16:29;;;;;;;2.38;2.13;;;17.10;69.30;;;;;;4975124;28;20220;-70
2022/11/23 04:18:55;;;;;;;2.25;1.85;;;17.10;69.20;;;;;;4991000;28;20205;-69
2022/11/23 04:21:21;;;;;;;2.30;2.05;;;17.10;69.40;;;;;;4975213;28;20248;-69
2022/11/23 04:23:47;;;;;;;2.08;1.88;;;17.10;69.40;;;;;;4978534;28;20272;-70
2022/11/23 04:26:14;;;;;;;2.47;1.98;;;17.10;69.30;;;;;;4978502;28;20218;-69
2022/11/23 04:28:42;;;;;;;2.40;2.13;;;17.10;69.20;;;;;;4978790;28;20288;-69
2022/11/23 04:31:09;;;;;;;2.35;2.15;;;17.10;69.30;;;;;;4994882;28;20193;-68
2022/11/23 04:33:55;;;;;;;2.55;2.30;;;17.10;69.20;;;;;;4994658;28;20173;-70
2022/11/23 04:36:22;;;;;;;2.15;1.95;;;17.10;69.30;;;;;;4994600;28;20215;-69
2022/11/23 04:38:49;;;;;;;2.13;1.92;;;17.10;69.20;;;;;;4994121;28;20228;-69
2022/11/23 04:41:18;;;;;;;2.30;2.08;;;17.10;69.20;;;;;;4997921;28;20180;-69
2022/11/23 04:43:47;;;;;;;3.08;1.95;;;17.10;69.20;;;;;;5013897;28;20215;-69
2022/11/23 04:46:14;;;;;;;2.28;1.75;;;17.10;69.10;;;;;;5013805;28;20195;-70
2022/11/23 04:48:41;;;;;;;2.45;2.20;;;17.10;69.90;;;;;;5013542;28;20771;-69
2022/11/23 04:51:07;;;;;;;2.53;2.15;;;17.10;69.20;;;;;;5013612;28;20299;-69
2022/11/23 04:53:36;;;;;;;2.75;1.80;;;17.10;69.20;;;;;;5013965;28;20207;-69
2022/11/23 04:56:03;;;;;;;2.35;1.85;;;17.10;69.00;;;;;;5013689;28;20354;-69
2022/11/23 04:58:35;;;;;;;2.40;1.83;;;17.10;69.10;;;;;;5013374;28;20204;-69
2022/11/23 05:01:03;;;;;;;2.15;1.77;;;17.10;69.10;;;;;;5013841;28;20180;-70
2022/11/23 05:03:33;;;;;;;3.85;2.30;;;17.10;69.90;;;;;;5013709;28;20384;-69
2022/11/23 05:06:02;;;;;;;2.10;1.90;;;17.10;69.20;;;;;;4997381;28;20242;-69
2022/11/23 05:08:36;;;;;;;2.22;2.00;;;17.10;69.10;;;;;;5013178;28;20207;-69
2022/11/23 05:11:37;;;;;;;2.33;2.08;;;17.10;69.00;;;;;;5004388;28;20230;-69
2022/11/23 05:14:03;;;;;;;2.38;1.80;;;17.10;69.10;;;;;;5021491;28;20227;-69
2022/11/23 05:16:31;;;;;;;2.58;2.03;;;17.10;69.00;;;;;;5013663;28;20246;-69
2022/11/23 05:18:57;;;;;;;2.30;1.90;;;17.10;68.90;;;;;;5013407;28;20218;-71
2022/11/23 05:21:23;;;;;;;2.47;2.28;;;17.10;69.00;;;;;;5013103;28;20184;-70
2022/11/23 05:23:49;;;;;;;2.42;2.10;;;17.10;69.00;;;;;;5013081;28;20263;-69
2022/11/23 05:26:17;;;;;;;2.55;2.13;;;17.10;69.00;;;;;;5013057;28;20188;-71
2022/11/23 05:28:43;;;;;;;2.47;2.00;;;17.10;69.00;;;;;;5012622;28;20223;-71
2022/11/23 05:31:13;;;;;;;2.25;1.98;;;17.10;69.00;;;;;;5013226;28;20184;-70
2022/11/23 05:33:40;;;;;;;1.90;1.70;;;17.10;69.00;;;;;;5012170;28;20242;-70
2022/11/23 05:36:12;;;;;;;2.20;2.00;;;17.10;69.00;;;;;;5012853;28;20239;-70
2022/11/23 05:38:40;;;;;;;2.10;1.90;;;17.10;69.00;;;;;;5004976;28;20209;-70
2022/11/23 05:41:11;;;;;;;2.17;1.98;;;17.10;69.00;;;;;;4978178;28;20302;-70
2022/11/23 05:43:40;;;;;;;2.00;1.80;;;17.10;69.10;;;;;;4993400;28;20185;-70
2022/11/23 05:46:08;;;;;;;2.20;2.00;;;17.10;69.10;;;;;;4992968;28;20181;-70
2022/11/23 05:48:36;;;;;;;3.55;1.70;;;17.10;69.10;;;;;;4992720;28;20216;-70
2022/11/23 05:51:07;;;;;;;1.95;1.70;;;17.10;69.00;;;;;;4977712;28;20664;-70
2022/11/23 05:53:37;;;;;;;2.35;2.00;;;17.10;69.00;;;;;;4992912;28;20259;-70
2022/11/23 05:56:08;;;;;;;2.05;1.80;;;17.10;68.90;;;;;;4992778;28;20270;-70
2022/11/23 05:58:44;;;;;;;2.03;1.75;;;17.10;69.00;;;;;;4992460;28;20262;-71
2022/11/23 06:01:11;;;;;;;3.60;1.92;;;17.10;68.90;;;;;;4976522;28;20184;-70
2022/11/23 06:03:38;;;;;;;2.30;1.75;;;17.10;69.00;;;;;;4992725;28;20272;-70
2022/11/23 06:06:05;;;;;;;1.50;1.40;;;17.10;69.00;;;;;;4993269;28;20196;-70
2022/11/23 06:08:36;;;;;;;1.80;1.60;;;17.10;68.90;;;;;;4977073;28;20226;-70
2022/11/23 06:11:03;;;;;;;2.10;1.90;;;17.10;69.00;;;;;;4992689;28;20184;-69
2022/11/23 06:13:29;;;;;;;2.08;1.80;;;17.10;69.00;;;;;;4992436;28;20193;-70
2022/11/23 06:15:56;;;;;;;2.30;2.10;;;17.10;68.90;;;;;;4991450;28;20689;-70
2022/11/23 06:18:30;;;;;;;2.03;1.80;;;17.10;68.90;;;;;;4996798;28;20180;-70
2022/11/23 06:21:00;;;;;;;2.25;2.05;;;17.10;69.00;;;;;;4992112;28;20192;-70
2022/11/23 06:23:27;;;;;;;1.92;1.50;;;17.10;69.00;;;;;;4990526;28;20184;-71
2022/11/23 06:25:58;;;;;;;2.17;1.80;;;17.10;69.00;;;;;;4995493;28;20180;-70
2022/11/23 06:28:26;;;;;;;2.00;1.80;;;17.10;69.00;;;;;;5010920;28;20191;-70
2022/11/23 06:30:54;;;;;;;1.70;1.60;;;17.10;69.00;;;;;;5010489;28;20191;-71
2022/11/23 06:33:21;;;;;;;2.33;1.98;;;17.10;69.00;;;;;;5011266;28;20188;-70
2022/11/23 06:35:58;;;;;;;2.55;1.73;;;17.10;69.00;;;;;;4995295;28;20637;-70
2022/11/23 06:38:30;;;;;;;2.58;1.70;;;17.10;69.00;;;;;;5011026;28;20657;-71
2022/11/23 06:41:16;;;;;;;1.88;1.55;;;17.10;69.00;;;;;;5011193;28;20246;-70
2022/11/23 06:43:46;;;;;;;2.38;1.63;;;17.10;69.00;;;;;;5011369;28;20226;-70
2022/11/23 06:46:18;;;;;;;2.15;1.90;;;17.10;69.00;;;;;;5011215;28;20184;-70
2022/11/23 06:48:46;;;;;;;2.17;1.83;;;17.20;69.20;;;;;;5027555;28;20303;-70
2022/11/23 06:51:14;;;;;;;2.40;2.20;;;17.10;69.10;;;;;;5011192;28;20227;-71
2022/11/23 06:53:41;;;;;;;2.72;2.15;;;17.10;69.10;;;;;;5011094;28;20218;-71
2022/11/23 06:56:08;;;;;;;2.70;1.88;;;17.10;69.00;;;;;;5011040;28;20703;-70
2022/11/23 06:58:35;;;;;;;3.60;1.95;;;17.10;69.10;;;;;;5010931;28;20203;-70
2022/11/23 07:01:09;;;;;;;2.85;2.15;;;17.10;69.10;;;;;;5010950;28;20180;-71
2022/11/23 07:03:40;;;;;;;3.30;2.00;;;17.10;69.10;;;;;;5011056;28;20180;-71
2022/11/23 07:06:18;;;;;;;3.25;2.30;;;17.10;69.10;;;;;;4996273;28;20611;-71
2022/11/23 07:08:44;;;;;;;2.67;2.33;;;17.10;69.00;;;;;;5010594;28;20269;-71
2022/11/23 07:11:25;;;;;;;2.40;2.20;;;17.10;69.00;;;;;;5010899;28;20258;-71
2022/11/23 07:13:51;;;;;;;3.63;2.58;;;17.10;69.00;;;;;;5010916;28;20238;-71
2022/11/23 07:16:17;;;;;;;2.83;2.58;;;17.10;68.90;;;;;;5010908;28;20211;-70
2022/11/23 07:18:43;;;;;;;3.55;2.20;;;17.10;68.90;;;;;;5010613;28;20207;-70
2022/11/23 07:21:09;;;;;;;2.42;2.22;;;17.10;68.80;;;;;;5010765;28;20180;-71
2022/11/23 07:23:39;;;;;;;2.80;2.55;;;17.20;68.90;;;;;;4994644;28;20187;-70
2022/11/23 07:26:06;;;;;;;3.50;2.40;;;17.10;68.80;;;;;;5010732;28;20191;-70
2022/11/23 07:28:32;;;;;;;3.35;2.63;;;17.10;68.90;;;;;;5010457;28;20219;-70
2022/11/23 07:30:58;;;;;;;3.20;2.50;;;17.10;68.90;;;;;;5010884;28;20191;-71
2022/11/23 07:33:24;;;;;;;4.25;2.70;;;17.10;68.90;;;;;;5010855;28;20195;-71
2022/11/23 07:35:50;;;;;;;3.47;2.47;;;17.20;69.00;;;;;;5026986;28;20690;-70
2022/11/23 07:38:15;;;;;;;4.05;2.67;;;17.10;68.90;;;;;;4993865;28;20182;-71
2022/11/23 07:40:42;;;;;;;3.45;2.70;;;17.10;68.90;;;;;;5010846;28;20275;-71
2022/11/23 07:43:18;;;;;;;2.83;2.63;;;17.10;68.90;;;;;;5010626;28;20184;-70
2022/11/23 07:45:47;;;;;;;3.40;2.78;;;17.10;68.90;;;;;;5010900;28;20191;-70
2022/11/23 07:48:15;;;;;;;4.53;2.95;;;17.10;68.90;;;;;;4993376;28;20180;-70
2022/11/23 07:50:41;;;;;;;4.38;3.08;;;17.10;68.90;;;;;;5007141;28;20197;-70
2022/11/23 07:53:07;;;;;;;4.10;2.88;;;17.10;68.80;;;;;;4991000;28;20196;-70
2022/11/23 07:55:33;;;;;;;3.92;2.92;;;17.10;68.70;;;;;;4974874;28;20201;-70
2022/11/23 07:57:59;;;;;;;6.25;3.90;;;17.20;68.90;;;;;;4977224;28;20177;-69
2022/11/23 08:00:27;;;;;;;6.25;4.07;;;17.20;69.00;;;;;;4994621;28;20201;-70
2022/11/23 08:02:53;;;;;;;6.50;4.32;;;17.10;68.70;;;;;;4994650;28;20189;-71
2022/11/23 08:05:20;;;;;;;7.35;4.93;;;17.10;68.80;;;;;;4995731;28;20177;-71
2022/11/23 08:07:46;;;;;;;8.20;5.05;;;17.20;68.90;;;;;;4978547;28;20185;-70
2022/11/23 08:10:12;;;;;;;10.10;5.65;;;17.10;68.70;;;;;;4994268;28;20197;-71
2022/11/23 08:12:38;;;;;;;10.18;6.25;;;17.20;68.90;;;;;;5000619;28;20580;-71
2022/11/23 08:15:05;;;;;;;13.27;6.60;;;17.10;68.80;;;;;;4997991;28;20192;-70
2022/11/23 08:17:32;;;;;;;11.25;6.30;;;17.10;68.80;;;;;;4997618;28;20216;-71
2022/11/23 08:19:58;;;;;;;13.30;7.32;;;17.20;68.90;;;;;;5013511;28;20243;-71
2022/11/23 08:22:23;;;;;;;12.77;7.25;;;17.10;68.70;;;;;;5015472;28;20216;-71
2022/11/23 08:24:49;;;;;;;12.48;7.00;;;17.10;68.70;;;;;;4997700;28;20184;-70
2022/11/23 08:27:15;;;;;;;13.25;7.53;;;17.20;68.90;;;;;;5013948;28;20242;-71
2022/11/23 08:29:41;;;;;;;15.63;8.80;;;17.10;68.80;;;;;;5013540;28;20290;-70
2022/11/23 08:32:07;;;;;;;15.23;8.75;;;17.10;68.80;;;;;;5013672;28;20188;-71
2022/11/23 08:34:32;;;;;;;13.73;8.45;;;17.20;68.90;;;;;;4997189;28;20290;-71
2022/11/23 08:36:58;;;;;;;15.88;9.18;;;17.20;68.90;;;;;;4996936;28;20238;-71
2022/11/23 08:39:24;;;;;;;15.82;9.05;;;17.20;68.80;;;;;;5013353;28;20212;-70
2022/11/23 08:41:49;;;;;;;12.80;7.85;;;17.20;68.90;;;;;;5013501;28;20192;-71
2022/11/23 08:44:15;;;;;;;15.63;8.68;;;17.20;68.80;;;;;;5013390;28;20180;-71
2022/11/23 08:46:41;;;;;;;14.73;8.55;;;17.20;68.90;;;;;;5013376;28;20192;-71
2022/11/23 08:49:07;;;;;;;14.23;8.85;;;17.20;68.80;;;;;;5045332;23;20222;-67
2022/11/23 08:51:33;;;;;;;16.20;8.90;;;17.20;68.70;;;;;;5053290;28;20654;-68
2022/11/23 08:53:59;;;;;;;13.98;8.23;;;17.20;68.80;;;;;;5069609;28;20311;-68
2022/11/23 08:56:24;;;;;;;15.70;7.88;;;17.20;68.80;;;;;;5036371;28;20202;-70
2022/11/23 08:58:50;;;;;;;11.55;7.60;;;17.20;68.80;;;;;;5052580;28;20236;-67
2022/11/23 09:01:17;;;;;;;11.57;7.20;;;17.20;68.90;;;;;;5052782;28;20187;-67
2022/11/23 09:03:43;;;;;;;14.23;7.72;;;17.20;68.80;;;;;;5053000;28;20194;-67
2022/11/23 09:06:10;;;;;;;11.77;6.70;;;17.20;68.90;;;;;;5053925;28;20191;-68
2022/11/23 09:08:37;;;;;;;12.13;7.30;;;17.20;68.90;;;;;;5051186;28;20316;-68
2022/11/23 09:11:06;;;;;;;11.20;6.80;;;17.20;68.80;;;;;;5053915;28;20556;-67
2022/11/23 09:13:36;;;;;;;11.88;7.45;;;17.20;68.80;;;;;;5052675;28;20186;-69
2022/11/23 09:16:03;;;;;;;12.80;7.40;;;17.20;68.90;;;;;;5052414;28;20214;-68
2022/11/23 09:18:30;;;;;;;12.68;7.72;;;17.20;69.00;;;;;;5052403;28;20179;-67
2022/11/23 09:20:56;;;;;;;11.70;6.90;;;17.20;69.00;;;;;;5035919;28;20682;-67
2022/11/23 09:23:23;;;;;;;11.35;6.97;;;17.20;69.00;;;;;;5052560;28;20189;-69
2022/11/23 09:25:49;;;;;;;11.48;6.50;;;17.20;68.90;;;;;;5052252;28;20186;-68
2022/11/23 09:28:23;;;;;;;10.27;5.80;;;17.20;68.90;;;;;;5035434;28;20730;-67
2022/11/23 09:30:49;;;;;;;9.23;5.82;;;17.20;68.90;;;;;;5052360;28;20198;-68
2022/11/23 09:33:15;;;;;;;10.90;6.07;;;17.20;68.90;;;;;;5035626;28;20583;-67
2022/11/23 09:35:40;;;;;;;9.43;5.93;;;17.20;69.00;;;;;;5053437;28;20206;-70
2022/11/23 09:38:06;;;;;;;10.68;6.00;;;17.20;69.00;;;;;;5035469;28;20194;-67
2022/11/23 09:40:39;;;;;;;10.10;6.10;;;17.20;68.90;;;;;;5052529;28;20198;-67
2022/11/23 09:43:40;;;;;;;9.23;6.13;;;17.20;69.00;;;;;;5051663;28;20182;-68
2022/11/23 09:46:19;;;;;;;9.55;5.97;;;17.20;68.90;;;;;;5032127;28;20267;-67
2022/11/23 09:49:16;;;;;;;10.25;6.25;;;17.20;69.00;;;;;;5024039;28;20276;-68
2022/11/23 09:51:43;;;;;;;8.93;5.30;;;17.20;69.00;;;;;;5035278;28;20190;-68
2022/11/23 09:54:37;;;;;;;9.18;5.55;;;17.20;68.90;;;;;;5051786;28;20247;-68
2022/11/23 09:57:04;;;;;;;8.90;5.32;;;17.30;69.10;;;;;;5031431;28;20287;-68
2022/11/23 09:59:38;;;;;;;7.70;5.10;;;17.30;69.00;;;;;;5035222;28;20238;-68
2022/11/23 10:02:04;;;;;;;8.30;5.00;;;17.20;68.90;;;;;;5051666;28;20238;-70
2022/11/23 10:04:34;;;;;;;7.03;4.43;;;17.30;69.80;;;;;;5051639;28;20651;-68
2022/11/23 10:07:24;;;;;;;7.47;4.95;;;17.30;69.00;;;;;;5035083;28;20189;-68
2022/11/23 10:10:09;;;;;;;7.25;5.22;;;17.30;69.00;;;;;;5052624;28;20209;-67
2022/11/23 10:13:27;;;;;;;7.88;4.90;;;17.30;69.10;;;;;;5048301;28;20198;-68
2022/11/23 10:16:32;;;;;;;8.38;4.28;;;17.30;69.00;;;;;;5034720;28;20225;-68
2022/11/23 10:19:54;;;;;;;8.65;4.47;;;17.30;69.00;;;;;;5034572;28;20232;-68
2022/11/23 10:22:50;;;;;;;8.18;4.82;;;17.30;69.00;;;;;;5051204;28;20273;-67
2022/11/23 10:25:20;;;;;;;6.60;4.38;;;17.30;69.10;;;;;;5051392;28;20179;-67
2022/11/23 10:27:50;;;;;;;5.93;4.20;;;17.30;69.00;;;;;;5034584;28;20186;-68
2022/11/23 10:30:18;;;;;;;6.47;4.38;;;17.30;69.00;;;;;;5050977;28;20203;-68
2022/11/23 10:33:18;;;;;;;5.75;4.13;;;17.30;69.00;;;;;;5034368;28;20277;-68
2022/11/23 10:35:44;;;;;;;7.20;4.43;;;17.30;69.10;;;;;;5051237;28;20252;-67
2022/11/23 10:38:16;;;;;;;6.55;4.22;;;17.30;69.00;;;;;;5050901;28;20547;-72
2022/11/23 10:41:01;;;;;;;6.40;3.65;;;17.30;69.10;;;;;;5050857;28;20256;-69
2022/11/23 10:43:54;;;;;;;5.88;3.78;;;17.30;69.10;;;;;;5034459;28;20182;-67
2022/11/23 10:46:36;;;;;;;5.60;3.95;;;17.30;69.20;;;;;;5052193;28;20269;-70
2022/11/23 10:49:21;;;;;;;5.70;3.70;;;17.30;69.20;;;;;;5050455;28;20225;-68
2022/11/23 10:51:57;;;;;;;4.70;3.58;;;17.30;69.20;;;;;;5034235;28;20182;-68
2022/11/23 10:54:48;;;;;;;5.20;3.50;;;17.30;69.30;;;;;;5050716;28;20269;-67
2022/11/23 10:57:30;;;;;;;5.50;3.60;;;17.30;69.20;;;;;;5051092;28;20225;-68
2022/11/23 11:00:18;;;;;;;5.45;3.53;;;17.30;69.30;;;;;;5050676;28;20198;-67
2022/11/23 11:02:47;;;;;;;5.03;3.45;;;17.30;69.30;;;;;;5034148;28;20299;-68
2022/11/23 11:05:37;;;;;;;5.50;3.13;;;17.30;69.30;;;;;;5034003;28;20186;-70
2022/11/23 11:08:16;;;;;;;5.65;3.33;;;17.30;69.20;;;;;;5034039;28;20194;-68
2022/11/23 11:11:20;;;;;;;4.28;3.22;;;17.30;69.30;;;;;;5050829;28;20209;-68
2022/11/23 11:13:48;;;;;;;3.97;2.97;;;17.30;69.40;;;;;;5050486;28;20293;-70
2022/11/23 11:16:35;;;;;;;4.68;3.15;;;17.30;69.40;;;;;;5051594;28;20805;-67
2022/11/23 11:19:31;;;;;;;3.80;2.63;;;17.30;69.40;;;;;;5050281;28;20206;-68
2022/11/23 11:22:01;;;;;;;3.80;2.83;;;17.30;69.40;;;;;;5033937;28;20182;-68
2022/11/23 11:24:38;;;;;;;4.90;3.03;;;17.40;69.60;;;;;;5050533;28;20190;-68
2022/11/23 11:27:14;;;;;;;4.00;3.08;;;17.30;69.30;;;;;;5034003;28;20281;-70
2022/11/23 11:29:43;;;;;;;5.35;3.22;;;17.30;69.40;;;;;;5033592;28;20210;-68
2022/11/23 11:32:30;;;;;;;3.25;2.60;;;17.30;69.40;;;;;;5053049;28;20609;-68
2022/11/23 11:35:21;;;;;;;4.47;2.90;;;17.30;69.40;;;;;;5037633;28;20186;-68
2022/11/23 11:37:54;;;;;;;3.95;2.78;;;17.30;69.50;;;;;;5021382;28;20242;-68
2022/11/23 11:40:50;;;;;;;4.40;3.10;;;17.30;69.50;;;;;;5035352;28;20203;-68
2022/11/23 11:43:41;;;;;;;4.50;2.78;;;17.30;69.50;;;;;;5034357;28;20697;-67
2022/11/23 11:46:28;;;;;;;4.78;3.05;;;17.40;69.60;;;;;;5034333;28;20183;-67
2022/11/23 11:49:06;;;;;;;4.90;2.72;;;17.30;69.50;;;;;;5033942;28;20686;-67
2022/11/23 11:51:57;;;;;;;3.45;2.70;;;17.40;69.60;;;;;;5037901;28;20237;-69
2022/11/23 11:54:58;;;;;;;4.30;2.70;;;17.30;69.60;;;;;;5035532;28;20183;-68
2022/11/23 11:58:04;;;;;;;2.95;2.17;;;17.40;69.60;;;;;;5034054;28;20222;-71
2022/11/23 12:00:35;;;;;;;4.90;2.53;;;17.40;69.60;;;;;;4995667;28;20233;-67
2022/11/23 12:03:50;;;;;;;3.47;2.60;;;17.40;69.70;;;;;;5033963;28;20270;-67
2022/11/23 12:06:34;;;;;;;3.45;2.65;;;17.40;69.60;;;;;;5021621;28;20202;-67
2022/11/23 12:09:29;;;;;;;4.00;2.58;;;17.40;69.50;;;;;;5036529;28;20234;-67
2022/11/23 12:11:57;;;;;;;4.05;2.47;;;17.40;69.50;;;;;;5033936;28;20190;-67
2022/11/23 12:14:23;;;;;;;4.25;2.65;;;17.40;69.60;;;;;;5017791;28;20195;-68
2022/11/23 12:17:16;;;;;;;3.28;2.55;;;17.40;69.70;;;;;;5033665;28;20252;-69
2022/11/23 12:20:27;;;;;;;2.38;1.85;;;17.40;69.60;;;;;;5033634;28;20303;-67
2022/11/23 12:23:25;;;;;;;2.90;2.38;;;17.40;69.50;;;;;;5033834;28;20229;-70
2022/11/23 12:26:22;;;;;;;3.80;2.17;;;17.40;69.50;;;;;;5033650;28;20670;-68
2022/11/23 12:28:54;;;;;;;2.40;2.00;;;17.40;69.60;;;;;;5033277;28;20176;-68
2022/11/23 12:31:43;;;;;;;2.92;2.20;;;17.40;69.50;;;;;;5017048;28;20194;-68
2022/11/23 12:34:23;;;;;;;3.72;2.10;;;17.40;69.50;;;;;;5016907;28;20655;-67
2022/11/23 12:37:26;;;;;;;3.25;2.00;;;17.40;69.40;;;;;;5016753;28;20214;-68
2022/11/23 12:40:28;;;;;;;2.83;2.03;;;17.40;69.40;;;;;;5032503;28;20226;-68
2022/11/23 12:43:04;;;;;;;3.20;1.98;;;17.40;69.40;;;;;;5033147;28;20639;-68
2022/11/23 12:45:44;;;;;;;2.30;2.00;;;17.40;69.40;;;;;;5016923;28;20237;-67
2022/11/23 12:48:58;;;;;;;3.50;2.10;;;17.40;69.40;;;;;;5033209;28;20191;-66
2022/11/23 12:51:57;;;;;;;3.95;2.00;;;17.40;69.40;;;;;;4980312;28;20195;-67
2022/11/23 12:54:56;;;;;;;3.30;2.45;;;17.40;69.30;;;;;;5033069;28;20241;-69
2022/11/23 12:57:32;;;;;;;3.00;1.90;;;17.40;69.40;;;;;;5034362;28;20214;-68
2022/11/23 13:00:34;;;;;;;4.03;2.05;;;17.40;69.40;;;;;;5032802;28;20664;-69
2022/11/23 13:03:32;;;;;;;2.83;1.83;;;17.40;69.20;;;;;;5003533;28;20307;-69
2022/11/23 13:06:31;;;;;;;2.88;1.88;;;17.40;69.30;;;;;;5033013;28;20187;-69
2022/11/23 13:09:36;;;;;;;3.35;1.77;;;17.40;69.40;;;;;;5033942;28;20278;-69
2022/11/23 13:12:40;;;;;;;3.00;1.73;;;17.40;69.20;;;;;;5034078;28;20179;-68
2022/11/23 13:15:34;;;;;;;2.53;2.00;;;17.40;69.40;;;;;;5034112;28;20183;-70
2022/11/23 13:18:35;;;;;;;2.80;1.90;;;17.40;69.30;;;;;;5016445;28;20215;-70